Terminal Aerodrome Forecast
Issued by NWS

Home | Current Version | Previous Version | Text Only | Print | Product List | Glossary On
Versions: 1 2 3 4 5 6 7 8 9 10 11 12 13 14 15 16 17 18 19 20 21 22 23 24 25 26 27 28 29 30 31 32 33
000
FTUS45 KGJT 252338
TAFASE
TAF
KASE 252338Z 2600/2624 32005KT P6SM VCSH SCT025 OVC045
      WS020/22030KT
     FM260400 VRB03KT P6SM VCSH SCT020 OVC040
      TEMPO 2604/2608 3SM -SHSN BR OVC025
     FM260800 21005KT 3SM -SN BR OVC015
     FM261900 35005KT 4SM -SHSN BR OVC030=

USA.gov is the U.S. government's official web portal to all federal, state and local government web resources and services.